sensor_id;sensor_type;location;lat;lon;timestamp;pressure;altitude;pressure_sealevel;temperature;humidity
63556;BME280;49700;48.072;7.800;2023-08-24T00:01:58;99506.78;;;23.27;nan
63556;BME280;49700;48.072;7.800;2023-08-24T00:04:24;99501.91;;;23.31;nan
63556;BME280;49700;48.072;7.800;2023-08-24T00:06:49;99505.69;;;23.36;nan
63556;BME280;49700;48.072;7.800;2023-08-24T00:09:15;99506.81;;;23.42;nan
63556;BME280;49700;48.072;7.800;2023-08-24T00:11:40;99501.25;;;23.44;nan
63556;BME280;49700;48.072;7.800;2023-08-24T00:14:06;99504.59;;;23.46;nan
63556;BME280;49700;48.072;7.800;2023-08-24T00:16:32;99510.16;;;23.44;nan
63556;BME280;49700;48.072;7.800;2023-08-24T00:18:57;99507.19;;;23.39;nan
63556;BME280;49700;48.072;7.800;2023-08-24T00:21:23;99502.28;;;23.28;nan
63556;BME280;49700;48.072;7.800;2023-08-24T00:23:52;99498.53;;;23.14;nan
63556;BME280;49700;48.072;7.800;2023-08-24T00:26:18;99499.47;;;23.06;nan
63556;BME280;49700;48.072;7.800;2023-08-24T00:28:44;99493.16;;;22.99;nan
63556;BME280;49700;48.072;7.800;2023-08-24T00:31:09;99482.94;;;22.94;nan
63556;BME280;49700;48.072;7.800;2023-08-24T00:33:34;99481.44;;;22.92;nan
63556;BME280;49700;48.072;7.800;2023-08-24T00:36:01;99474.06;;;22.94;nan
63556;BME280;49700;48.072;7.800;2023-08-24T00:38:27;99473.91;;;22.95;nan
63556;BME280;49700;48.072;7.800;2023-08-24T00:40:52;99470.06;;;22.90;nan
63556;BME280;49700;48.072;7.800;2023-08-24T00:43:19;99463.13;;;22.81;nan
63556;BME280;49700;48.072;7.800;2023-08-24T00:45:50;99465.41;;;22.69;nan
63556;BME280;49700;48.072;7.800;2023-08-24T00:48:17;99470.63;;;22.62;nan
63556;BME280;49700;48.072;7.800;2023-08-24T00:50:43;99460.34;;;22.51;nan
63556;BME280;49700;48.072;7.800;2023-08-24T00:53:09;99456.44;;;22.39;nan
63556;BME280;49700;48.072;7.800;2023-08-24T00:55:35;99461.34;;;22.27;nan
63556;BME280;49700;48.072;7.800;2023-08-24T00:58:02;99453.19;;;22.20;nan
63556;BME280;49700;48.072;7.800;2023-08-24T01:00:28;99455.69;;;22.14;nan
63556;BME280;49700;48.072;7.800;2023-08-24T01:02:54;99451.06;;;22.07;nan
63556;BME280;49700;48.072;7.800;2023-08-24T01:05:19;99445.25;;;22.04;nan
63556;BME280;49700;48.072;7.800;2023-08-24T01:07:44;99449.91;;;22.02;nan
63556;BME280;49700;48.072;7.800;2023-08-24T01:10:11;99443.25;;;21.98;nan
63556;BME280;49700;48.072;7.800;2023-08-24T01:12:42;99438.75;;;21.98;nan
63556;BME280;49700;48.072;7.800;2023-08-24T01:17:43;99428.16;;;22.05;nan
63556;BME280;49700;48.072;7.800;2023-08-24T01:20:10;99434.66;;;22.10;nan
63556;BME280;49700;48.072;7.800;2023-08-24T01:23:02;99430.44;;;22.16;nan
63556;BME280;49700;48.072;7.800;2023-08-24T01:25:38;99430.28;;;22.18;nan
63556;BME280;49700;48.072;7.800;2023-08-24T01:28:06;99432.66;;;22.13;nan
63556;BME280;49700;48.072;7.800;2023-08-24T01:30:34;99433.53;;;22.05;nan
63556;BME280;49700;48.072;7.800;2023-08-24T01:33:02;99441.94;;;21.94;nan
63556;BME280;49700;48.072;7.800;2023-08-24T01:35:28;99450.84;;;21.86;nan
63556;BME280;49700;48.072;7.800;2023-08-24T01:37:54;99453.38;;;21.79;nan
63556;BME280;49700;48.072;7.800;2023-08-24T01:43:15;99458.25;;;21.68;nan
63556;BME280;49700;48.072;7.800;2023-08-24T01:45:41;99447.56;;;21.68;nan
63556;BME280;49700;48.072;7.800;2023-08-24T01:48:09;99435.03;;;21.68;nan
63556;BME280;49700;48.072;7.800;2023-08-24T01:50:35;99430.19;;;21.72;nan
63556;BME280;49700;48.072;7.800;2023-08-24T01:53:01;99432.97;;;21.78;nan
63556;BME280;49700;48.072;7.800;2023-08-24T01:55:27;99430.63;;;21.83;nan
63556;BME280;49700;48.072;7.800;2023-08-24T01:57:54;99420.91;;;21.91;nan
63556;BME280;49700;48.072;7.800;2023-08-24T02:00:20;99421.84;;;21.98;nan
63556;BME280;49700;48.072;7.800;2023-08-24T02:02:46;99422.00;;;22.04;nan
63556;BME280;49700;48.072;7.800;2023-08-24T02:05:11;99422.97;;;22.12;nan
63556;BME280;49700;48.072;7.800;2023-08-24T02:07:39;99429.97;;;22.13;nan
63556;BME280;49700;48.072;7.800;2023-08-24T02:10:05;99428.78;;;22.15;nan
63556;BME280;49700;48.072;7.800;2023-08-24T02:12:30;99426.59;;;22.19;nan
63556;BME280;49700;48.072;7.800;2023-08-24T02:14:56;99431.44;;;22.23;nan
63556;BME280;49700;48.072;7.800;2023-08-24T02:17:21;99422.03;;;22.27;nan
63556;BME280;49700;48.072;7.800;2023-08-24T02:19:47;99417.81;;;22.33;nan
63556;BME280;49700;48.072;7.800;2023-08-24T02:22:13;99420.50;;;22.33;nan
63556;BME280;49700;48.072;7.800;2023-08-24T02:24:38;99429.72;;;22.30;nan
63556;BME280;49700;48.072;7.800;2023-08-24T02:27:04;99428.50;;;22.33;nan
63556;BME280;49700;48.072;7.800;2023-08-24T02:29:30;99428.34;;;22.35;nan
63556;BME280;49700;48.072;7.800;2023-08-24T02:31:55;99425.31;;;22.38;nan
63556;BME280;49700;48.072;7.800;2023-08-24T02:34:21;99431.50;;;22.38;nan
63556;BME280;49700;48.072;7.800;2023-08-24T02:36:46;99426.50;;;22.35;nan
63556;BME280;49700;48.072;7.800;2023-08-24T02:39:11;99420.84;;;22.30;nan
63556;BME280;49700;48.072;7.800;2023-08-24T02:41:37;99417.69;;;22.26;nan
63556;BME280;49700;48.072;7.800;2023-08-24T02:44:02;99424.06;;;22.25;nan
63556;BME280;49700;48.072;7.800;2023-08-24T02:46:28;99417.88;;;22.25;nan
63556;BME280;49700;48.072;7.800;2023-08-24T02:48:54;99415.03;;;22.26;nan
63556;BME280;49700;48.072;7.800;2023-08-24T02:51:21;99402.31;;;22.28;nan
63556;BME280;49700;48.072;7.800;2023-08-24T02:53:47;99398.97;;;22.26;nan
63556;BME280;49700;48.072;7.800;2023-08-24T02:56:12;99404.16;;;22.28;nan
63556;BME280;49700;48.072;7.800;2023-08-24T02:58:38;99408.13;;;22.32;nan
63556;BME280;49700;48.072;7.800;2023-08-24T03:01:07;99410.63;;;22.34;nan
63556;BME280;49700;48.072;7.800;2023-08-24T03:03:36;99400.56;;;22.36;nan
63556;BME280;49700;48.072;7.800;2023-08-24T03:06:06;99394.22;;;22.37;nan
63556;BME280;49700;48.072;7.800;2023-08-24T03:08:33;99386.84;;;22.39;nan
63556;BME280;49700;48.072;7.800;2023-08-24T03:11:01;99384.19;;;22.39;nan
63556;BME280;49700;48.072;7.800;2023-08-24T03:13:27;99385.16;;;22.38;nan
63556;BME280;49700;48.072;7.800;2023-08-24T03:15:54;99368.28;;;22.37;nan
63556;BME280;49700;48.072;7.800;2023-08-24T03:18:19;99368.28;;;22.37;nan
63556;BME280;49700;48.072;7.800;2023-08-24T03:20:46;99357.13;;;22.34;nan
63556;BME280;49700;48.072;7.800;2023-08-24T03:23:14;99364.50;;;22.31;nan
63556;BME280;49700;48.072;7.800;2023-08-24T03:25:41;99367.53;;;22.28;nan
63556;BME280;49700;48.072;7.800;2023-08-24T03:28:08;99370.56;;;22.25;nan
63556;BME280;49700;48.072;7.800;2023-08-24T03:30:35;99379.28;;;22.19;nan
63556;BME280;49700;48.072;7.800;2023-08-24T03:33:01;99368.97;;;22.08;nan
63556;BME280;49700;48.072;7.800;2023-08-24T03:35:30;99367.53;;;21.97;nan
63556;BME280;49700;48.072;7.800;2023-08-24T03:37:55;99350.88;;;21.87;nan
63556;BME280;49700;48.072;7.800;2023-08-24T03:40:23;99354.97;;;21.75;nan
63556;BME280;49700;48.072;7.800;2023-08-24T03:42:48;99347.66;;;21.69;nan
63556;BME280;49700;48.072;7.800;2023-08-24T03:45:14;99348.00;;;21.65;nan
63556;BME280;49700;48.072;7.800;2023-08-24T03:47:39;99354.19;;;21.66;nan
63556;BME280;49700;48.072;7.800;2023-08-24T03:50:05;99349.47;;;21.68;nan
63556;BME280;49700;48.072;7.800;2023-08-24T03:52:30;99345.31;;;21.65;nan
63556;BME280;49700;48.072;7.800;2023-08-24T03:54:57;99342.16;;;21.62;nan
63556;BME280;49700;48.072;7.800;2023-08-24T03:57:23;99333.03;;;21.56;nan
63556;BME280;49700;48.072;7.800;2023-08-24T03:59:48;99326.38;;;21.52;nan
63556;BME280;49700;48.072;7.800;2023-08-24T04:02:15;99328.53;;;21.49;nan
63556;BME280;49700;48.072;7.800;2023-08-24T04:04:41;99328.72;;;21.47;nan
63556;BME280;49700;48.072;7.800;2023-08-24T04:07:06;99320.53;;;21.49;nan
63556;BME280;49700;48.072;7.800;2023-08-24T04:09:32;99314.00;;;21.51;nan
63556;BME280;49700;48.072;7.800;2023-08-24T04:11:57;99323.50;;;21.54;nan
63556;BME280;49700;48.072;7.800;2023-08-24T04:14:22;99317.16;;;21.55;nan
63556;BME280;49700;48.072;7.800;2023-08-24T04:16:48;99319.81;;;21.55;nan
63556;BME280;49700;48.072;7.800;2023-08-24T04:19:13;99324.69;;;21.51;nan
63556;BME280;49700;48.072;7.800;2023-08-24T04:21:39;99335.72;;;21.48;nan
63556;BME280;49700;48.072;7.800;2023-08-24T04:24:04;99331.44;;;21.39;nan
63556;BME280;49700;48.072;7.800;2023-08-24T04:26:30;99334.94;;;21.31;nan
63556;BME280;49700;48.072;7.800;2023-08-24T04:28:56;99348.81;;;21.27;nan
63556;BME280;49700;48.072;7.800;2023-08-24T04:31:21;99338.47;;;21.24;nan
63556;BME280;49700;48.072;7.800;2023-08-24T04:33:47;99329.28;;;21.26;nan
63556;BME280;49700;48.072;7.800;2023-08-24T04:36:12;99328.94;;;21.29;nan
63556;BME280;49700;48.072;7.800;2023-08-24T04:38:37;99339.63;;;21.29;nan
63556;BME280;49700;48.072;7.800;2023-08-24T04:41:03;99328.78;;;21.31;nan
63556;BME280;49700;48.072;7.800;2023-08-24T04:43:32;99335.44;;;21.35;nan
63556;BME280;49700;48.072;7.800;2023-08-24T04:45:58;99325.25;;;21.38;nan
63556;BME280;49700;48.072;7.800;2023-08-24T04:48:24;99336.44;;;21.42;nan
63556;BME280;49700;48.072;7.800;2023-08-24T04:50:51;99325.88;;;21.49;nan
63556;BME280;49700;48.072;7.800;2023-08-24T04:53:19;99335.38;;;21.51;nan
63556;BME280;49700;48.072;7.800;2023-08-24T04:55:46;99337.06;;;21.52;nan
63556;BME280;49700;48.072;7.800;2023-08-24T04:58:12;99335.84;;;21.55;nan
63556;BME280;49700;48.072;7.800;2023-08-24T05:00:39;99342.88;;;21.56;nan
63556;BME280;49700;48.072;7.800;2023-08-24T05:03:05;99347.03;;;21.58;nan
63556;BME280;49700;48.072;7.800;2023-08-24T05:05:32;99354.88;;;21.60;nan
63556;BME280;49700;48.072;7.800;2023-08-24T05:07:58;99352.69;;;21.63;nan
63556;BME280;49700;48.072;7.800;2023-08-24T05:10:24;99343.50;;;21.66;nan
63556;BME280;49700;48.072;7.800;2023-08-24T05:12:50;99344.81;;;21.70;nan
63556;BME280;49700;48.072;7.800;2023-08-24T05:15:16;99354.16;;;21.74;nan
63556;BME280;49700;48.072;7.800;2023-08-24T05:17:41;99356.78;;;21.82;nan
63556;BME280;49700;48.072;7.800;2023-08-24T05:20:08;99355.69;;;21.92;nan
63556;BME280;49700;48.072;7.800;2023-08-24T05:22:36;99358.16;;;22.01;nan
63556;BME280;49700;48.072;7.800;2023-08-24T05:25:01;99353.75;;;22.08;nan
63556;BME280;49700;48.072;7.800;2023-08-24T05:27:26;99353.06;;;22.15;nan
63556;BME280;49700;48.072;7.800;2023-08-24T05:29:52;99353.56;;;22.18;nan
63556;BME280;49700;48.072;7.800;2023-08-24T05:32:17;99360.72;;;22.18;nan
63556;BME280;49700;48.072;7.800;2023-08-24T05:34:45;99367.25;;;22.15;nan
63556;BME280;49700;48.072;7.800;2023-08-24T05:37:10;99362.72;;;22.16;nan
63556;BME280;49700;48.072;7.800;2023-08-24T05:39:36;99358.22;;;22.16;nan
63556;BME280;49700;48.072;7.800;2023-08-24T05:42:01;99365.06;;;22.19;nan
63556;BME280;49700;48.072;7.800;2023-08-24T05:44:27;99367.22;;;22.23;nan
63556;BME280;49700;48.072;7.800;2023-08-24T05:46:52;99364.03;;;22.28;nan
63556;BME280;49700;48.072;7.800;2023-08-24T05:49:18;99372.50;;;22.31;nan
63556;BME280;49700;48.072;7.800;2023-08-24T05:51:43;99374.16;;;22.33;nan
63556;BME280;49700;48.072;7.800;2023-08-24T05:54:09;99379.22;;;22.27;nan
63556;BME280;49700;48.072;7.800;2023-08-24T05:56:34;99380.78;;;22.22;nan
63556;BME280;49700;48.072;7.800;2023-08-24T05:59:00;99383.63;;;22.20;nan
63556;BME280;49700;48.072;7.800;2023-08-24T06:01:25;99389.81;;;22.21;nan
63556;BME280;49700;48.072;7.800;2023-08-24T06:03:54;99384.63;;;22.19;nan
63556;BME280;49700;48.072;7.800;2023-08-24T06:06:19;99378.91;;;22.22;nan
63556;BME280;49700;48.072;7.800;2023-08-24T06:08:45;99380.59;;;22.23;nan
63556;BME280;49700;48.072;7.800;2023-08-24T06:11:10;99380.06;;;22.28;nan
63556;BME280;49700;48.072;7.800;2023-08-24T06:13:36;99379.00;;;22.37;nan
63556;BME280;49700;48.072;7.800;2023-08-24T06:16:01;99382.25;;;22.47;nan
63556;BME280;49700;48.072;7.800;2023-08-24T06:18:27;99385.53;;;22.58;nan
63556;BME280;49700;48.072;7.800;2023-08-24T06:20:53;99398.47;;;22.69;nan
63556;BME280;49700;48.072;7.800;2023-08-24T06:23:19;99392.84;;;22.79;nan
63556;BME280;49700;48.072;7.800;2023-08-24T06:25:45;99403.47;;;22.87;nan
63556;BME280;49700;48.072;7.800;2023-08-24T06:28:13;99403.41;;;22.95;nan
63556;BME280;49700;48.072;7.800;2023-08-24T06:30:40;99402.72;;;23.01;nan
63556;BME280;49700;48.072;7.800;2023-08-24T06:33:06;99405.88;;;23.05;nan
63556;BME280;49700;48.072;7.800;2023-08-24T06:35:33;99409.38;;;23.05;nan
63556;BME280;49700;48.072;7.800;2023-08-24T06:37:58;99404.84;;;23.06;nan
63556;BME280;49700;48.072;7.800;2023-08-24T06:40:24;99406.53;;;23.07;nan
63556;BME280;49700;48.072;7.800;2023-08-24T06:42:49;99403.19;;;23.05;nan
63556;BME280;49700;48.072;7.800;2023-08-24T06:45:15;99401.53;;;23.04;nan
63556;BME280;49700;48.072;7.800;2023-08-24T06:47:42;99403.34;;;23.03;nan
63556;BME280;49700;48.072;7.800;2023-08-24T06:50:07;99407.50;;;23.06;nan
63556;BME280;49700;48.072;7.800;2023-08-24T06:52:33;99410.19;;;23.06;nan
63556;BME280;49700;48.072;7.800;2023-08-24T06:54:59;99413.72;;;23.06;nan
63556;BME280;49700;48.072;7.800;2023-08-24T06:57:25;99413.81;;;23.13;nan
63556;BME280;49700;48.072;7.800;2023-08-24T06:59:50;99408.00;;;23.24;nan
63556;BME280;49700;48.072;7.800;2023-08-24T07:02:16;99398.00;;;23.33;nan
63556;BME280;49700;48.072;7.800;2023-08-24T07:04:43;99393.47;;;23.48;nan
63556;BME280;49700;48.072;7.800;2023-08-24T07:07:09;99402.25;;;23.57;nan
63556;BME280;49700;48.072;7.800;2023-08-24T07:09:34;99395.06;;;23.57;nan
63556;BME280;49700;48.072;7.800;2023-08-24T07:12:03;99398.19;;;23.61;nan
63556;BME280;49700;48.072;7.800;2023-08-24T07:14:32;99393.28;;;23.64;nan
63556;BME280;49700;48.072;7.800;2023-08-24T07:16:58;99382.47;;;23.73;nan
63556;BME280;49700;48.072;7.800;2023-08-24T07:19:24;99388.47;;;24.11;nan
63556;BME280;49700;48.072;7.800;2023-08-24T07:21:49;99392.44;;;24.80;nan
63556;BME280;49700;48.072;7.800;2023-08-24T07:24:15;99394.56;;;25.54;nan
63556;BME280;49700;48.072;7.800;2023-08-24T07:26:41;99389.03;;;26.23;nan
63556;BME280;49700;48.072;7.800;2023-08-24T07:29:08;99383.28;;;26.73;nan
63556;BME280;49700;48.072;7.800;2023-08-24T07:31:33;99384.72;;;27.09;nan
63556;BME280;49700;48.072;7.800;2023-08-24T07:33:58;99372.75;;;27.56;nan
63556;BME280;49700;48.072;7.800;2023-08-24T07:36:24;99371.81;;;28.21;nan
63556;BME280;49700;48.072;7.800;2023-08-24T07:38:50;99369.91;;;28.60;nan
63556;BME280;49700;48.072;7.800;2023-08-24T07:41:16;99363.66;;;28.84;nan
63556;BME280;49700;48.072;7.800;2023-08-24T07:43:43;99365.97;;;28.81;nan
63556;BME280;49700;48.072;7.800;2023-08-24T07:46:09;99373.44;;;28.60;nan
63556;BME280;49700;48.072;7.800;2023-08-24T07:48:35;99368.47;;;28.57;nan
63556;BME280;49700;48.072;7.800;2023-08-24T07:51:00;99367.13;;;28.41;nan
63556;BME280;49700;48.072;7.800;2023-08-24T07:53:25;99374.09;;;28.24;nan
63556;BME280;49700;48.072;7.800;2023-08-24T07:55:53;99379.63;;;28.04;nan
63556;BME280;49700;48.072;7.800;2023-08-24T07:58:19;99385.94;;;27.78;nan
63556;BME280;49700;48.072;7.800;2023-08-24T08:00:45;99384.19;;;27.58;nan
63556;BME280;49700;48.072;7.800;2023-08-24T08:03:11;99383.78;;;27.48;nan
63556;BME280;49700;48.072;7.800;2023-08-24T08:05:36;99380.13;;;27.36;nan
63556;BME280;49700;48.072;7.800;2023-08-24T08:08:02;99380.53;;;27.33;nan
63556;BME280;49700;48.072;7.800;2023-08-24T08:10:27;99377.19;;;27.44;nan
63556;BME280;49700;48.072;7.800;2023-08-24T08:12:53;99379.63;;;27.52;nan
63556;BME280;49700;48.072;7.800;2023-08-24T08:15:18;99377.31;;;27.63;nan
63556;BME280;49700;48.072;7.800;2023-08-24T08:17:44;99382.47;;;27.64;nan
63556;BME280;49700;48.072;7.800;2023-08-24T08:20:09;99374.19;;;27.66;nan
63556;BME280;49700;48.072;7.800;2023-08-24T08:22:37;99364.31;;;27.91;nan
63556;BME280;49700;48.072;7.800;2023-08-24T08:25:05;99355.41;;;28.22;nan
63556;BME280;49700;48.072;7.800;2023-08-24T08:27:30;99357.31;;;28.72;nan
63556;BME280;49700;48.072;7.800;2023-08-24T08:29:56;99361.19;;;29.01;nan
63556;BME280;49700;48.072;7.800;2023-08-24T08:32:21;99355.16;;;29.43;nan
63556;BME280;49700;48.072;7.800;2023-08-24T08:34:47;99350.56;;;29.92;nan
63556;BME280;49700;48.072;7.800;2023-08-24T08:37:12;99352.97;;;30.42;nan
63556;BME280;49700;48.072;7.800;2023-08-24T08:39:38;99353.03;;;30.89;nan
63556;BME280;49700;48.072;7.800;2023-08-24T08:42:03;99357.84;;;31.22;nan
63556;BME280;49700;48.072;7.800;2023-08-24T08:44:30;99363.97;;;31.41;nan
63556;BME280;49700;48.072;7.800;2023-08-24T08:46:57;99349.16;;;31.61;nan
63556;BME280;49700;48.072;7.800;2023-08-24T08:49:22;99350.19;;;31.71;nan
63556;BME280;49700;48.072;7.800;2023-08-24T08:51:49;99353.91;;;31.82;nan
63556;BME280;49700;48.072;7.800;2023-08-24T08:54:14;99353.41;;;31.85;nan
63556;BME280;49700;48.072;7.800;2023-08-24T08:56:40;99341.97;;;31.83;nan
63556;BME280;49700;48.072;7.800;2023-08-24T08:59:08;99342.72;;;31.79;nan
63556;BME280;49700;48.072;7.800;2023-08-24T09:01:34;99338.72;;;31.69;nan
63556;BME280;49700;48.072;7.800;2023-08-24T09:04:00;99342.25;;;31.70;nan
63556;BME280;49700;48.072;7.800;2023-08-24T09:06:26;99337.81;;;31.64;nan
63556;BME280;49700;48.072;7.800;2023-08-24T09:08:52;99329.06;;;31.62;nan
63556;BME280;49700;48.072;7.800;2023-08-24T09:11:17;99338.63;;;31.64;nan
63556;BME280;49700;48.072;7.800;2023-08-24T09:13:44;99328.41;;;31.55;nan
63556;BME280;49700;48.072;7.800;2023-08-24T09:16:10;99328.53;;;31.48;nan
63556;BME280;49700;48.072;7.800;2023-08-24T09:18:43;99320.16;;;31.49;nan
63556;BME280;49700;48.072;7.800;2023-08-24T09:21:16;99310.44;;;31.53;nan
63556;BME280;49700;48.072;7.800;2023-08-24T09:23:52;99314.56;;;31.56;nan
63556;BME280;49700;48.072;7.800;2023-08-24T09:26:33;99314.44;;;31.63;nan
63556;BME280;49700;48.072;7.800;2023-08-24T09:29:00;99301.44;;;31.65;nan
63556;BME280;49700;48.072;7.800;2023-08-24T09:31:36;99297.34;;;31.62;nan
63556;BME280;49700;48.072;7.800;2023-08-24T09:34:02;99292.88;;;31.73;nan
63556;BME280;49700;48.072;7.800;2023-08-24T09:36:31;99284.53;;;31.91;nan
63556;BME280;49700;48.072;7.800;2023-08-24T09:38:58;99282.69;;;32.09;nan
63556;BME280;49700;48.072;7.800;2023-08-24T09:41:37;99269.59;;;32.06;nan
63556;BME280;49700;48.072;7.800;2023-08-24T09:44:03;99265.50;;;32.03;nan
63556;BME280;49700;48.072;7.800;2023-08-24T09:46:29;99257.56;;;32.02;nan
63556;BME280;49700;48.072;7.800;2023-08-24T09:48:54;99254.84;;;32.02;nan
63556;BME280;49700;48.072;7.800;2023-08-24T09:51:24;99252.41;;;32.00;nan
63556;BME280;49700;48.072;7.800;2023-08-24T09:53:51;99249.75;;;32.05;nan
63556;BME280;49700;48.072;7.800;2023-08-24T09:56:19;99243.91;;;31.96;nan
63556;BME280;49700;48.072;7.800;2023-08-24T09:58:49;99246.03;;;31.94;nan
63556;BME280;49700;48.072;7.800;2023-08-24T10:01:17;99247.53;;;32.02;nan
63556;BME280;49700;48.072;7.800;2023-08-24T10:03:44;99240.44;;;32.18;nan
63556;BME280;49700;48.072;7.800;2023-08-24T10:06:14;99229.22;;;32.31;nan
63556;BME280;49700;48.072;7.800;2023-08-24T10:08:47;99228.22;;;32.37;nan
63556;BME280;49700;48.072;7.800;2023-08-24T10:11:20;99213.66;;;32.44;nan
63556;BME280;49700;48.072;7.800;2023-08-24T10:14:03;99212.69;;;32.50;nan
63556;BME280;49700;48.072;7.800;2023-08-24T10:16:33;99209.22;;;32.54;nan
63556;BME280;49700;48.072;7.800;2023-08-24T10:18:59;99214.13;;;32.40;nan
63556;BME280;49700;48.072;7.800;2023-08-24T10:21:29;99213.06;;;32.42;nan
63556;BME280;49700;48.072;7.800;2023-08-24T10:23:58;99208.94;;;32.56;nan
63556;BME280;49700;48.072;7.800;2023-08-24T10:26:25;99198.22;;;32.66;nan
63556;BME280;49700;48.072;7.800;2023-08-24T10:28:51;99190.28;;;32.65;nan
63556;BME280;49700;48.072;7.800;2023-08-24T10:31:18;99192.25;;;32.69;nan
63556;BME280;49700;48.072;7.800;2023-08-24T10:33:45;99178.22;;;32.77;nan
63556;BME280;49700;48.072;7.800;2023-08-24T10:36:13;99176.22;;;32.90;nan
63556;BME280;49700;48.072;7.800;2023-08-24T10:38:42;99185.88;;;33.02;nan
63556;BME280;49700;48.072;7.800;2023-08-24T10:41:14;99186.81;;;33.13;nan
63556;BME280;49700;48.072;7.800;2023-08-24T10:43:49;99194.97;;;33.13;nan
63556;BME280;49700;48.072;7.800;2023-08-24T10:46:15;99189.09;;;32.99;nan
63556;BME280;49700;48.072;7.800;2023-08-24T10:53:57;99172.53;;;32.79;nan
63556;BME280;49700;48.072;7.800;2023-08-24T10:56:34;99164.69;;;32.82;nan
63556;BME280;49700;48.072;7.800;2023-08-24T10:59:14;99160.94;;;32.89;nan
63556;BME280;49700;48.072;7.800;2023-08-24T11:02:01;99155.72;;;33.04;nan
63556;BME280;49700;48.072;7.800;2023-08-24T11:04:27;99149.28;;;33.15;nan
63556;BME280;49700;48.072;7.800;2023-08-24T11:06:54;99152.06;;;33.20;nan
63556;BME280;49700;48.072;7.800;2023-08-24T11:09:20;99148.31;;;33.26;nan
63556;BME280;49700;48.072;7.800;2023-08-24T11:11:59;99144.47;;;33.22;nan
63556;BME280;49700;48.072;7.800;2023-08-24T11:14:25;99155.41;;;33.27;nan
63556;BME280;49700;48.072;7.800;2023-08-24T11:17:01;99149.84;;;33.44;nan
63556;BME280;49700;48.072;7.800;2023-08-24T11:19:54;99137.91;;;33.50;nan
63556;BME280;49700;48.072;7.800;2023-08-24T11:22:20;99147.50;;;33.53;nan
63556;BME280;49700;48.072;7.800;2023-08-24T11:24:48;99133.34;;;33.56;nan
63556;BME280;49700;48.072;7.800;2023-08-24T11:27:13;99139.56;;;33.52;nan
63556;BME280;49700;48.072;7.800;2023-08-24T11:29:39;99147.28;;;33.33;nan
63556;BME280;49700;48.072;7.800;2023-08-24T11:32:05;99145.53;;;33.21;nan
63556;BME280;49700;48.072;7.800;2023-08-24T11:34:31;99134.91;;;33.20;nan
63556;BME280;49700;48.072;7.800;2023-08-24T11:36:57;99140.59;;;33.18;nan
63556;BME280;49700;48.072;7.800;2023-08-24T11:39:25;99135.16;;;33.18;nan
63556;BME280;49700;48.072;7.800;2023-08-24T11:42:16;99129.13;;;33.11;nan
63556;BME280;49700;48.072;7.800;2023-08-24T11:44:48;99133.69;;;33.05;nan
63556;BME280;49700;48.072;7.800;2023-08-24T11:47:15;99133.13;;;33.03;nan
63556;BME280;49700;48.072;7.800;2023-08-24T11:49:41;99123.63;;;33.06;nan
63556;BME280;49700;48.072;7.800;2023-08-24T11:52:06;99117.72;;;33.14;nan
63556;BME280;49700;48.072;7.800;2023-08-24T11:54:32;99112.88;;;33.21;nan
63556;BME280;49700;48.072;7.800;2023-08-24T11:56:58;99110.19;;;33.26;nan
63556;BME280;49700;48.072;7.800;2023-08-24T11:59:24;99110.53;;;33.30;nan
63556;BME280;49700;48.072;7.800;2023-08-24T12:01:51;99110.59;;;33.40;nan
63556;BME280;49700;48.072;7.800;2023-08-24T12:04:18;99102.47;;;33.45;nan
63556;BME280;49700;48.072;7.800;2023-08-24T12:06:43;99092.44;;;33.51;nan
63556;BME280;49700;48.072;7.800;2023-08-24T12:09:09;99096.13;;;33.35;nan
63556;BME280;49700;48.072;7.800;2023-08-24T12:11:36;99092.22;;;33.25;nan
63556;BME280;49700;48.072;7.800;2023-08-24T12:14:02;99091.16;;;33.26;nan
63556;BME280;49700;48.072;7.800;2023-08-24T12:16:30;99086.78;;;33.25;nan
63556;BME280;49700;48.072;7.800;2023-08-24T12:18:58;99081.88;;;33.22;nan
63556;BME280;49700;48.072;7.800;2023-08-24T12:21:33;99076.09;;;33.19;nan
63556;BME280;49700;48.072;7.800;2023-08-24T12:23:59;99062.50;;;33.19;nan
63556;BME280;49700;48.072;7.800;2023-08-24T12:26:26;99060.56;;;33.14;nan
63556;BME280;49700;48.072;7.800;2023-08-24T12:28:52;99049.69;;;33.14;nan
63556;BME280;49700;48.072;7.800;2023-08-24T12:31:18;99051.25;;;33.10;nan
63556;BME280;49700;48.072;7.800;2023-08-24T12:33:45;99039.28;;;33.06;nan
63556;BME280;49700;48.072;7.800;2023-08-24T12:36:11;99038.13;;;33.02;nan
63556;BME280;49700;48.072;7.800;2023-08-24T12:38:36;99038.13;;;33.02;nan
63556;BME280;49700;48.072;7.800;2023-08-24T12:41:02;99037.88;;;33.03;nan
63556;BME280;49700;48.072;7.800;2023-08-24T12:43:27;99032.16;;;33.05;nan
63556;BME280;49700;48.072;7.800;2023-08-24T12:45:53;99022.47;;;33.14;nan
63556;BME280;49700;48.072;7.800;2023-08-24T12:48:18;99025.56;;;33.28;nan
63556;BME280;49700;48.072;7.800;2023-08-24T12:50:44;99017.22;;;33.40;nan
63556;BME280;49700;48.072;7.800;2023-08-24T12:53:09;99007.44;;;33.44;nan
63556;BME280;49700;48.072;7.800;2023-08-24T12:55:39;99004.75;;;33.49;nan
63556;BME280;49700;48.072;7.800;2023-08-24T12:58:06;98993.34;;;33.52;nan
63556;BME280;49700;48.072;7.800;2023-08-24T13:00:31;98996.13;;;33.57;nan
63556;BME280;49700;48.072;7.800;2023-08-24T13:02:57;98989.09;;;33.66;nan
63556;BME280;49700;48.072;7.800;2023-08-24T13:05:24;98979.59;;;33.74;nan
63556;BME280;49700;48.072;7.800;2023-08-24T13:07:52;98973.91;;;33.81;nan
63556;BME280;49700;48.072;7.800;2023-08-24T13:10:20;98964.38;;;33.83;nan
63556;BME280;49700;48.072;7.800;2023-08-24T13:12:46;98962.47;;;33.79;nan
63556;BME280;49700;48.072;7.800;2023-08-24T13:15:11;98957.28;;;33.82;nan
63556;BME280;49700;48.072;7.800;2023-08-24T13:17:37;98955.16;;;33.89;nan
63556;BME280;49700;48.072;7.800;2023-08-24T13:20:03;98946.72;;;33.96;nan
63556;BME280;49700;48.072;7.800;2023-08-24T13:22:28;98941.28;;;34.01;nan
63556;BME280;49700;48.072;7.800;2023-08-24T13:24:54;98918.47;;;34.12;nan
63556;BME280;49700;48.072;7.800;2023-08-24T13:27:19;98920.41;;;34.22;nan
63556;BME280;49700;48.072;7.800;2023-08-24T13:29:45;98910.88;;;34.35;nan
63556;BME280;49700;48.072;7.800;2023-08-24T13:32:10;98901.34;;;34.43;nan